Leavenworth, WA (98826)

9:24 PM PST on December 24, 2014 (GMT -0800)
HADS CHUMSTICK CREEK NEAR MOUTH NEAR WA US WADOECO | Change Station
CLOSE
Current Station
Personal Weather Station
Location: Leavenworth, WA
Elevation: 1165 ft
Nearby Weather Stations

Elev 1165 ft 47.60 °N, 120.65 °W | Updated 1 hour ago

Clear
Clear
32 °F
Feels Like 32 °F
N
Wind Variable Wind from North
Gusts 0.0 mph

Today
High -- | Low -- °F
--% Chance of Precip.
Yesterday
High -- | Low -- °F
Precip. -- in
7:49 AM 4:15 PM
Waxing Crescent, 13% visible
Pressure 29.86 in
Visibility 10.0 miles
Clouds Clear
Windchill 32 °F
Dew Point Not available.
Humidity Not available.
Rainfall -999.00 in
Snow Depth Not available.
UV 0 out of 12
Pollen .90 out of 12
Air Quality Not available.
Flu Activity Not available.
METAR KEAT 250455Z AUTO 31013KT 10SM CLR 06/M04 A2984 RMK AO2 SLP111 T00561044 $

More Conditions Fewer Conditions

Pressure 29.86 in
Visibility 10.0 miles
Clouds Clear
Windchill 32 °F
Dew Point Not available.
Humidity Not available.
Rainfall -999.00 in
Snow Depth Not available.
UV 0 out of 12
Pollen .90 out of 12
Air Quality Not available.
Flu Activity Not available.
METAR KEAT 250455Z AUTO 31013KT 10SM CLR 06/M04 A2984 RMK AO2 SLP111 T00561044 $

More Conditions Fewer Conditions

10-Day Weather Forecast

Almanac

Astronomy

Dec. 24, 2014 Rise Set
Actual Time
Civil Twilight
Nautical Twilight
Astronomical Twilight
Moon
Length of Visible Light
Length of Day
Tomorrow will be .
, % of the Moon is Illuminated

Today's Extremes

State Highs State Lows

Community

WunderPhotos

Upload Photos

1,780,244 photos uploaded!

WunderBlogs® & News

Nearby

Air Quality

  Air Quality AQ Index Pollutant
Not available.

Snow Depth

Station Depth Elevation

Earthquake Activity

City Distance Mag. Time & Date
Minimum magnitude displayed is 2.5.

Coastal Water Temperatures

Place Temperature

Nearby Weather Stations